Time;durP1;ratioP1;P1;durP2;ratioP2;P2;SDS_P1;SDS_P2;PMS_P1;PMS_P2;Temp;Humidity;BMP_temperature;BMP_pressure;BME280_temperature;BME280_humidity;BME280_pressure;Samples;Min_cycle;Max_cycle;Signal;HPM_P1;HPM_P2
2023/05/20 00:01:51;;;;;;;11.53;9.90;;;11.70;99.90;;;;;;5050860;28;20279;-58
2023/05/20 00:04:18;;;;;;;9.73;8.73;;;11.60;99.90;;;;;;5053374;28;20204;-58
2023/05/20 00:06:45;;;;;;;9.80;8.80;;;11.60;99.90;;;;;;5052798;28;20677;-58
2023/05/20 00:09:12;;;;;;;10.87;9.73;;;11.60;99.90;;;;;;5053863;28;20221;-58
2023/05/20 00:11:39;;;;;;;12.83;10.23;;;11.60;99.90;;;;;;5053946;28;20244;-58
2023/05/20 00:14:08;;;;;;;10.53;9.37;;;11.60;99.90;;;;;;5054023;28;20235;-58
2023/05/20 00:16:35;;;;;;;10.60;9.60;;;11.50;99.90;;;;;;5051290;28;20205;-58
2023/05/20 00:19:02;;;;;;;11.07;8.93;;;11.40;99.90;;;;;;5052701;28;20315;-58
2023/05/20 00:21:30;;;;;;;9.20;8.30;;;11.30;99.90;;;;;;5053719;28;20251;-58
2023/05/20 00:23:57;;;;;;;9.93;9.07;;;11.20;99.90;;;;;;5053415;28;20220;-58
2023/05/20 00:26:25;;;;;;;12.10;9.57;;;11.20;99.90;;;;;;5053846;28;20669;-58
2023/05/20 00:28:51;;;;;;;13.00;10.30;;;11.20;99.90;;;;;;5053933;28;20782;-58
2023/05/20 00:31:20;;;;;;;11.27;10.13;;;11.20;99.90;;;;;;5052167;28;20619;-58
2023/05/20 00:33:47;;;;;;;11.33;10.20;;;11.10;99.90;;;;;;5051168;28;20202;-58
2023/05/20 00:36:14;;;;;;;12.70;9.97;;;11.10;99.90;;;;;;5045710;28;20245;-59
2023/05/20 00:38:41;;;;;;;9.57;8.63;;;11.10;99.90;;;;;;5049712;28;20220;-58
2023/05/20 00:41:08;;;;;;;12.13;9.97;;;11.00;99.90;;;;;;5053769;28;20628;-57
2023/05/20 00:43:35;;;;;;;10.03;8.87;;;11.00;99.90;;;;;;5053196;28;20224;-58
2023/05/20 00:46:02;;;;;;;11.57;8.70;;;11.00;99.90;;;;;;5051239;28;20208;-58
2023/05/20 00:48:40;;;;;;;10.63;9.60;;;11.00;99.90;;;;;;5052537;28;20240;-58
2023/05/20 00:51:07;;;;;;;13.53;10.67;;;11.00;99.90;;;;;;5053252;28;20269;-59
2023/05/20 00:53:35;;;;;;;11.03;9.83;;;11.00;99.90;;;;;;5053007;28;20200;-58
2023/05/20 00:56:02;;;;;;;11.47;10.37;;;11.00;99.90;;;;;;5052315;28;20654;-58
2023/05/20 00:58:29;;;;;;;10.47;9.47;;;10.90;99.90;;;;;;5053109;28;20639;-58
2023/05/20 01:00:56;;;;;;;11.57;10.30;;;10.90;99.90;;;;;;5053482;28;20621;-58
2023/05/20 01:03:23;;;;;;;10.90;9.80;;;10.90;99.90;;;;;;5053323;28;20590;-58
2023/05/20 01:05:52;;;;;;;11.07;9.93;;;10.90;99.90;;;;;;5044395;28;20716;-58
2023/05/20 01:08:19;;;;;;;13.13;10.73;;;10.80;99.90;;;;;;5051640;28;20224;-58
2023/05/20 01:10:49;;;;;;;12.27;10.53;;;10.80;99.90;;;;;;5053766;28;20212;-58
2023/05/20 01:13:20;;;;;;;10.03;9.03;;;10.80;99.90;;;;;;5053992;28;20250;-58
2023/05/20 01:15:49;;;;;;;12.73;11.43;;;10.70;99.90;;;;;;5054300;28;20208;-58
2023/05/20 01:18:19;;;;;;;10.33;9.33;;;10.70;99.90;;;;;;5053363;28;20225;-58
2023/05/20 01:20:48;;;;;;;11.20;9.73;;;10.70;99.90;;;;;;5050672;28;20205;-58
2023/05/20 01:23:17;;;;;;;13.67;11.17;;;10.70;99.90;;;;;;5052652;28;20243;-58
2023/05/20 01:25:44;;;;;;;16.93;13.77;;;10.60;99.90;;;;;;5053679;28;20554;-59
2023/05/20 01:28:16;;;;;;;16.60;13.03;;;10.60;99.90;;;;;;5052632;28;20289;-58
2023/05/20 01:30:51;;;;;;;13.93;12.17;;;10.50;99.90;;;;;;5051253;28;20256;-58
2023/05/20 01:33:22;;;;;;;11.43;10.33;;;10.50;99.90;;;;;;5052279;28;20195;-59
2023/05/20 01:35:49;;;;;;;13.47;11.70;;;10.50;99.90;;;;;;5043278;28;20247;-58
2023/05/20 01:38:19;;;;;;;14.03;11.10;;;10.40;99.90;;;;;;5049705;28;20732;-58
2023/05/20 01:40:47;;;;;;;12.10;11.00;;;10.40;99.90;;;;;;5052547;28;20200;-58
2023/05/20 01:43:14;;;;;;;12.03;10.73;;;10.50;99.90;;;;;;5050936;28;20222;-59
2023/05/20 01:45:42;;;;;;;12.00;10.67;;;10.50;99.90;;;;;;5052302;28;20200;-58
2023/05/20 01:48:11;;;;;;;11.43;10.07;;;10.40;99.90;;;;;;5052126;28;20273;-59
2023/05/20 01:50:38;;;;;;;10.87;9.73;;;10.40;99.90;;;;;;5051505;28;20258;-58
2023/05/20 01:53:07;;;;;;;11.20;10.00;;;10.40;99.90;;;;;;5051296;28;20189;-58
2023/05/20 01:55:35;;;;;;;13.93;10.37;;;10.40;99.90;;;;;;5047523;28;20193;-58
2023/05/20 01:58:02;;;;;;;10.60;9.50;;;10.40;99.90;;;;;;5052090;28;20220;-58
2023/05/20 02:00:29;;;;;;;11.43;10.23;;;10.40;99.90;;;;;;5052169;28;20212;-58
2023/05/20 02:02:56;;;;;;;13.90;10.73;;;10.40;99.90;;;;;;5051882;28;20227;-58
2023/05/20 02:05:23;;;;;;;13.30;11.37;;;10.40;99.90;;;;;;5051038;28;20209;-59
2023/05/20 02:07:50;;;;;;;12.00;10.90;;;10.40;99.90;;;;;;5049599;28;20283;-58
2023/05/20 02:10:17;;;;;;;12.50;10.93;;;10.40;99.90;;;;;;5051892;28;20250;-58
2023/05/20 02:12:46;;;;;;;11.77;10.57;;;10.50;99.90;;;;;;5051651;28;20196;-59
2023/05/20 02:15:13;;;;;;;12.67;11.43;;;10.50;99.90;;;;;;5052070;28;20211;-58
2023/05/20 02:17:42;;;;;;;12.10;10.80;;;10.50;99.90;;;;;;5049526;28;20770;-58
2023/05/20 02:20:10;;;;;;;12.93;11.53;;;10.50;99.90;;;;;;5051779;28;20662;-58
2023/05/20 02:22:37;;;;;;;15.17;11.83;;;10.50;99.90;;;;;;5057624;28;20231;-58
2023/05/20 02:25:05;;;;;;;13.17;11.13;;;10.50;99.90;;;;;;5054859;28;20267;-58
2023/05/20 02:27:32;;;;;;;13.43;11.57;;;10.50;99.90;;;;;;5054826;28;20223;-59
2023/05/20 02:30:00;;;;;;;14.47;11.70;;;10.50;99.90;;;;;;5057603;28;20205;-58
2023/05/20 02:32:27;;;;;;;13.03;9.47;;;10.50;99.90;;;;;;5059279;28;20289;-58
2023/05/20 02:34:54;;;;;;;11.93;10.17;;;10.50;99.90;;;;;;5059228;28;20203;-58
2023/05/20 02:37:21;;;;;;;12.40;11.07;;;10.50;99.90;;;;;;5060190;28;20681;-58
2023/05/20 02:39:48;;;;;;;13.23;11.57;;;10.40;99.90;;;;;;5057897;28;20259;-58
2023/05/20 02:42:15;;;;;;;15.10;12.77;;;10.40;99.90;;;;;;5054891;28;20286;-58
2023/05/20 02:44:42;;;;;;;12.57;11.07;;;10.40;99.90;;;;;;5055663;28;20200;-58
2023/05/20 02:47:11;;;;;;;11.83;10.63;;;10.40;99.90;;;;;;5055704;28;20204;-58
2023/05/20 02:49:38;;;;;;;15.10;12.67;;;10.40;99.90;;;;;;5055623;28;20203;-58
2023/05/20 02:52:05;;;;;;;12.80;11.47;;;10.40;99.90;;;;;;5055486;28;20261;-60
2023/05/20 02:54:32;;;;;;;12.37;11.10;;;10.40;99.90;;;;;;5053421;28;20269;-57
2023/05/20 02:57:02;;;;;;;13.43;11.57;;;10.40;99.90;;;;;;5054306;28;20208;-58
2023/05/20 02:59:29;;;;;;;11.93;10.83;;;10.50;99.90;;;;;;5055391;28;20226;-58
2023/05/20 03:01:56;;;;;;;12.23;10.97;;;10.50;99.90;;;;;;5055403;28;20207;-58
2023/05/20 03:04:25;;;;;;;12.53;10.67;;;10.50;99.90;;;;;;5054984;28;20224;-59
2023/05/20 03:06:52;;;;;;;15.47;13.07;;;10.50;99.90;;;;;;5055788;28;20287;-58
2023/05/20 03:09:19;;;;;;;13.77;12.30;;;10.50;99.90;;;;;;5052831;28;20716;-58
2023/05/20 03:11:48;;;;;;;13.37;12.03;;;10.50;99.90;;;;;;5046002;28;20673;-58
2023/05/20 03:14:15;;;;;;;14.87;13.00;;;10.50;99.90;;;;;;5054912;28;20200;-58
2023/05/20 03:16:42;;;;;;;14.13;12.53;;;10.50;99.90;;;;;;5055076;28;20201;-58
2023/05/20 03:19:09;;;;;;;14.43;13.03;;;10.50;99.90;;;;;;5054912;28;20229;-58
2023/05/20 03:21:37;;;;;;;15.43;11.97;;;10.50;99.90;;;;;;5054275;28;20205;-58
2023/05/20 03:24:05;;;;;;;13.27;11.13;;;10.50;99.90;;;;;;5054714;28;20214;-58
2023/05/20 03:26:36;;;;;;;13.00;11.80;;;10.50;99.90;;;;;;5053743;28;20204;-58
2023/05/20 03:29:03;;;;;;;12.97;11.73;;;10.50;99.90;;;;;;5054756;28;20228;-58
2023/05/20 03:31:30;;;;;;;14.17;11.90;;;10.50;99.90;;;;;;5054724;28;20204;-59
2023/05/20 03:33:57;;;;;;;13.03;11.37;;;10.50;99.90;;;;;;5053569;28;20204;-58
2023/05/20 03:36:24;;;;;;;13.50;11.80;;;10.40;99.90;;;;;;5054868;28;20274;-59
2023/05/20 03:38:52;;;;;;;12.47;10.87;;;10.40;99.90;;;;;;5054790;28;20223;-58
2023/05/20 03:41:19;;;;;;;10.80;9.70;;;10.40;99.90;;;;;;5054042;28;20200;-57
2023/05/20 03:43:46;;;;;;;11.30;10.03;;;10.40;99.90;;;;;;5052055;28;20221;-58
2023/05/20 03:46:13;;;;;;;11.23;10.23;;;10.50;99.90;;;;;;5052290;28;20263;-58
2023/05/20 03:48:40;;;;;;;9.47;8.57;;;10.50;99.90;;;;;;5054569;28;20274;-59
2023/05/20 03:51:07;;;;;;;10.77;9.57;;;10.40;99.90;;;;;;5054639;28;20219;-58
2023/05/20 03:53:34;;;;;;;10.57;9.47;;;10.40;99.90;;;;;;5053954;28;20209;-58
2023/05/20 03:56:02;;;;;;;10.53;9.63;;;10.50;99.90;;;;;;5054461;28;20215;-58
2023/05/20 03:58:30;;;;;;;12.80;10.77;;;10.50;99.90;;;;;;5052169;28;20222;-58
2023/05/20 04:00:57;;;;;;;10.60;9.60;;;10.50;99.90;;;;;;5046730;28;20262;-59
2023/05/20 04:03:24;;;;;;;12.67;10.33;;;10.50;99.90;;;;;;5053926;28;20762;-58
2023/05/20 04:05:51;;;;;;;11.23;9.13;;;10.50;99.90;;;;;;5054184;28;20744;-59
2023/05/20 04:08:18;;;;;;;11.30;10.10;;;10.50;99.90;;;;;;5054100;28;20224;-58
2023/05/20 04:10:46;;;;;;;11.40;10.23;;;10.50;99.90;;;;;;5053062;28;20284;-58
2023/05/20 04:13:14;;;;;;;11.10;9.97;;;10.50;99.90;;;;;;5052298;28;20200;-58
2023/05/20 04:15:41;;;;;;;12.50;11.17;;;10.60;99.90;;;;;;5053904;28;20254;-58
2023/05/20 04:18:09;;;;;;;14.13;10.30;;;10.60;99.90;;;;;;5053836;28;20233;-57
2023/05/20 04:20:36;;;;;;;11.60;10.50;;;10.60;99.90;;;;;;5054000;28;20282;-58
2023/05/20 04:23:03;;;;;;;11.40;10.40;;;10.60;99.90;;;;;;5050971;28;20202;-58
2023/05/20 04:25:30;;;;;;;15.10;13.47;;;10.70;99.90;;;;;;5052824;28;20745;-58
2023/05/20 04:27:58;;;;;;;10.83;9.80;;;10.80;99.90;;;;;;5053685;28;20300;-58
2023/05/20 04:30:27;;;;;;;14.03;10.80;;;10.80;99.90;;;;;;5053794;28;20227;-58
2023/05/20 04:32:54;;;;;;;16.07;12.00;;;10.90;99.90;;;;;;5052803;28;20204;-59
2023/05/20 04:35:24;;;;;;;13.53;12.33;;;10.90;99.90;;;;;;5052463;28;20200;-58
2023/05/20 04:37:52;;;;;;;13.17;10.00;;;10.90;99.90;;;;;;5052232;28;20220;-58
2023/05/20 04:40:20;;;;;;;12.00;10.83;;;10.90;99.90;;;;;;5052701;28;20739;-57
2023/05/20 04:42:47;;;;;;;11.60;10.50;;;10.90;99.90;;;;;;5053355;28;20207;-58
2023/05/20 04:45:14;;;;;;;13.23;11.53;;;10.90;99.90;;;;;;5052548;28;20224;-58
2023/05/20 04:47:43;;;;;;;14.67;12.03;;;11.00;99.90;;;;;;5050362;28;20223;-58
2023/05/20 04:50:11;;;;;;;12.80;11.60;;;11.00;99.90;;;;;;5053425;28;20276;-58
2023/05/20 04:52:38;;;;;;;15.80;12.07;;;11.00;99.90;;;;;;5053097;28;20634;-58
2023/05/20 04:55:08;;;;;;;13.00;11.73;;;11.10;99.90;;;;;;5053376;28;20207;-58
2023/05/20 04:57:37;;;;;;;17.37;13.90;;;11.30;99.90;;;;;;5052366;28;20227;-58
2023/05/20 05:00:06;;;;;;;12.53;11.27;;;11.50;99.90;;;;;;5051739;28;20293;-58
2023/05/20 05:02:33;;;;;;;14.87;12.90;;;11.80;99.90;;;;;;5045196;28;20212;-58
2023/05/20 05:05:02;;;;;;;16.47;13.20;;;12.40;99.90;;;;;;5051319;28;20219;-58
2023/05/20 05:07:29;;;;;;;13.90;11.70;;;12.90;99.90;;;;;;5053170;28;20268;-59
2023/05/20 05:09:56;;;;;;;11.97;10.87;;;13.60;99.90;;;;;;5051644;28;20251;-58
2023/05/20 05:12:23;;;;;;;11.63;10.63;;;14.20;99.90;;;;;;5051974;28;20787;-59
2023/05/20 05:14:49;;;;;;;12.43;11.33;;;14.60;99.90;;;;;;5050317;28;20805;-57
2023/05/20 05:17:16;;;;;;;11.27;10.20;;;15.30;99.90;;;;;;5045273;28;20708;-58
2023/05/20 05:19:43;;;;;;;10.00;8.93;;;16.00;99.90;;;;;;5052466;28;20205;-59
2023/05/20 05:22:12;;;;;;;12.50;11.33;;;16.70;99.90;;;;;;5051767;28;20248;-59
2023/05/20 05:24:39;;;;;;;11.80;10.53;;;17.10;99.90;;;;;;5049459;28;20316;-58
2023/05/20 05:27:06;;;;;;;12.97;11.57;;;17.50;99.90;;;;;;5051895;28;20202;-58
2023/05/20 05:29:33;;;;;;;13.63;11.43;;;17.70;99.90;;;;;;5051423;28;20198;-58
2023/05/20 05:32:01;;;;;;;13.13;11.70;;;17.70;99.90;;;;;;5051223;28;20629;-59
2023/05/20 05:34:28;;;;;;;12.83;11.53;;;17.70;99.90;;;;;;5051819;28;20252;-58
2023/05/20 05:36:55;;;;;;;13.90;12.13;;;18.20;99.90;;;;;;5048690;28;20325;-58
2023/05/20 05:39:23;;;;;;;12.40;11.40;;;18.30;99.90;;;;;;5051602;28;20280;-57
2023/05/20 05:41:50;;;;;;;14.00;11.83;;;18.20;99.90;;;;;;5048254;28;20206;-58
2023/05/20 05:44:17;;;;;;;18.20;12.50;;;18.50;99.90;;;;;;5051428;28;20271;-58
2023/05/20 05:46:44;;;;;;;12.07;10.97;;;17.40;99.90;;;;;;5051172;28;20251;-59
2023/05/20 05:49:11;;;;;;;12.93;11.77;;;17.20;99.90;;;;;;5051741;28;20271;-58
2023/05/20 05:51:38;;;;;;;13.50;12.20;;;16.70;99.90;;;;;;5051580;28;20251;-58
2023/05/20 05:54:05;;;;;;;14.03;12.67;;;16.80;99.90;;;;;;5051503;28;20279;-58
2023/05/20 05:56:34;;;;;;;13.53;12.43;;;17.20;99.90;;;;;;5047713;28;20259;-58
2023/05/20 05:59:01;;;;;;;15.23;13.93;;;18.10;99.90;;;;;;5057528;28;20652;-58
2023/05/20 06:01:28;;;;;;;13.77;12.53;;;19.20;99.90;;;;;;5051651;28;20205;-59
2023/05/20 06:03:55;;;;;;;13.17;12.03;;;20.10;99.90;;;;;;5051172;28;20772;-58
2023/05/20 06:06:22;;;;;;;12.23;11.13;;;20.40;99.90;;;;;;5051330;28;20206;-58
2023/05/20 06:08:49;;;;;;;13.70;12.40;;;21.20;99.90;;;;;;5048721;28;20225;-58
2023/05/20 06:11:16;;;;;;;11.87;10.90;;;21.10;99.90;;;;;;5037548;28;20198;-58
2023/05/20 06:13:44;;;;;;;12.40;11.50;;;21.00;99.90;;;;;;5047441;28;20206;-59
2023/05/20 06:16:11;;;;;;;10.73;9.40;;;21.20;99.90;;;;;;5051055;28;20225;-59
2023/05/20 06:18:38;;;;;;;11.40;9.60;;;21.00;99.90;;;;;;5050976;28;20225;-58
2023/05/20 06:21:05;;;;;;;10.43;9.63;;;21.40;99.90;;;;;;5050886;28;20247;-58
2023/05/20 06:23:32;;;;;;;9.27;8.57;;;21.20;99.90;;;;;;5043083;28;20658;-58
2023/05/20 06:25:59;;;;;;;13.40;9.07;;;21.60;99.90;;;;;;5049780;28;20221;-58
2023/05/20 06:28:27;;;;;;;8.50;7.90;;;21.20;99.90;;;;;;5051177;28;20283;-58
2023/05/20 06:30:56;;;;;;;8.70;7.97;;;21.30;99.90;;;;;;5051062;28;20283;-59
2023/05/20 06:33:25;;;;;;;8.63;7.77;;;22.10;99.90;;;;;;5050819;28;20209;-58
2023/05/20 06:35:52;;;;;;;11.50;10.30;;;22.10;99.90;;;;;;5049290;28;20634;-59
2023/05/20 06:38:19;;;;;;;9.57;7.77;;;22.00;99.90;;;;;;5044872;28;20236;-59
2023/05/20 06:40:48;;;;;;;8.73;7.93;;;22.00;99.90;;;;;;5047769;28;20200;-59
2023/05/20 06:43:15;;;;;;;8.50;7.50;;;21.90;99.90;;;;;;5050593;28;20570;-58
2023/05/20 06:45:42;;;;;;;7.43;6.70;;;22.40;99.90;;;;;;5050841;28;20650;-59
2023/05/20 06:48:11;;;;;;;7.27;6.77;;;21.80;99.90;;;;;;5050427;28;20601;-59
2023/05/20 06:50:38;;;;;;;7.23;6.60;;;22.90;99.90;;;;;;5042165;28;20608;-59
2023/05/20 06:53:05;;;;;;;7.27;6.37;;;23.70;99.90;;;;;;5050135;28;20666;-58
2023/05/20 06:55:32;;;;;;;6.93;6.43;;;23.20;99.90;;;;;;5050412;28;20243;-59
2023/05/20 06:57:59;;;;;;;7.50;6.27;;;23.90;99.90;;;;;;5045017;28;20218;-58
2023/05/20 07:00:26;;;;;;;6.57;6.00;;;24.10;99.90;;;;;;5050751;28;20197;-59
2023/05/20 07:02:53;;;;;;;6.57;5.30;;;24.10;99.90;;;;;;5050457;28;20271;-58
2023/05/20 07:05:23;;;;;;;6.17;5.67;;;23.70;99.90;;;;;;5050485;28;20295;-59
2023/05/20 07:07:50;;;;;;;5.57;5.23;;;23.80;99.90;;;;;;5050837;28;20237;-58
2023/05/20 07:10:17;;;;;;;5.37;5.07;;;24.20;99.90;;;;;;5044481;28;20199;-58
2023/05/20 07:12:44;;;;;;;6.00;5.50;;;24.20;99.90;;;;;;5047161;28;20690;-59
2023/05/20 07:15:11;;;;;;;6.57;6.13;;;24.10;99.90;;;;;;5050703;28;20566;-59
2023/05/20 07:17:38;;;;;;;6.43;6.03;;;23.30;99.90;;;;;;5050489;28;20613;-59
2023/05/20 07:20:07;;;;;;;5.93;5.43;;;23.30;99.90;;;;;;5050891;28;20267;-58
2023/05/20 07:22:35;;;;;;;6.53;5.90;;;23.60;99.90;;;;;;5051115;28;20647;-59
2023/05/20 07:25:02;;;;;;;6.60;6.00;;;24.00;99.90;;;;;;5040266;28;20536;-59
2023/05/20 07:27:29;;;;;;;6.43;5.93;;;23.70;99.90;;;;;;5050974;28;20218;-59
2023/05/20 07:29:56;;;;;;;5.90;5.50;;;23.90;99.90;;;;;;5054311;28;20900;-59
2023/05/20 07:32:23;;;;;;;6.37;5.77;;;23.90;99.90;;;;;;5054009;28;20259;-59
2023/05/20 07:34:50;;;;;;;6.93;6.37;;;24.10;99.90;;;;;;5054219;28;20267;-59
2023/05/20 07:37:17;;;;;;;6.13;5.83;;;23.70;99.90;;;;;;5048442;28;20205;-59
2023/05/20 07:39:46;;;;;;;7.27;6.57;;;23.70;99.90;;;;;;5050834;28;20201;-58
2023/05/20 07:42:13;;;;;;;7.00;6.50;;;23.20;99.90;;;;;;5053958;28;20283;-58
2023/05/20 07:44:40;;;;;;;6.83;6.40;;;22.80;99.90;;;;;;5051643;28;20567;-59
2023/05/20 07:47:25;;;;;;;6.53;6.03;;;23.10;99.90;;;;;;5048907;28;20194;-59
2023/05/20 07:49:52;;;;;;;7.47;6.97;;;22.80;99.90;;;;;;5049589;28;20259;-60
2023/05/20 07:52:19;;;;;;;6.87;6.40;;;22.50;99.90;;;;;;5051254;28;20252;-59
2023/05/20 07:54:47;;;;;;;6.50;6.00;;;22.50;99.90;;;;;;5052872;28;20201;-59
2023/05/20 07:57:14;;;;;;;7.43;6.73;;;22.90;99.90;;;;;;5051723;28;20574;-59
2023/05/20 07:59:41;;;;;;;6.77;6.37;;;22.70;99.90;;;;;;5051752;28;20202;-60
2023/05/20 08:02:08;;;;;;;8.17;7.30;;;23.20;99.90;;;;;;5047680;28;20664;-59
2023/05/20 08:04:36;;;;;;;6.47;6.07;;;23.90;99.90;;;;;;5049979;28;20237;-59
2023/05/20 08:07:03;;;;;;;7.33;6.57;;;24.90;99.90;;;;;;5051215;28;20206;-59
2023/05/20 08:09:31;;;;;;;7.77;7.27;;;24.90;99.90;;;;;;5052588;28;20287;-59
2023/05/20 08:12:03;;;;;;;7.33;6.87;;;24.70;99.90;;;;;;5052857;28;20226;-59
2023/05/20 08:14:30;;;;;;;8.83;8.13;;;23.90;99.90;;;;;;5051626;28;20201;-59
2023/05/20 08:16:57;;;;;;;7.60;7.07;;;23.70;99.90;;;;;;5048122;28;20206;-58
2023/05/20 08:19:24;;;;;;;8.60;7.83;;;23.50;99.90;;;;;;5053149;28;20267;-60
2023/05/20 08:21:50;;;;;;;8.63;7.83;;;23.50;99.90;;;;;;5053128;28;20553;-59
2023/05/20 08:24:18;;;;;;;8.73;8.03;;;23.20;99.90;;;;;;5052875;28;20289;-59
2023/05/20 08:26:45;;;;;;;8.07;7.33;;;23.70;99.90;;;;;;5050347;28;20236;-59
2023/05/20 08:29:13;;;;;;;6.90;6.40;;;23.70;99.90;;;;;;5050296;28;20596;-58
2023/05/20 08:31:40;;;;;;;6.87;6.47;;;24.70;99.90;;;;;;5047766;28;20915;-60
2023/05/20 08:34:07;;;;;;;6.33;5.70;;;25.00;99.90;;;;;;5049037;28;20202;-60
2023/05/20 08:36:34;;;;;;;7.17;6.57;;;25.00;99.90;;;;;;5048397;28;20328;-59
2023/05/20 08:39:01;;;;;;;9.37;8.57;;;23.70;99.90;;;;;;5051603;28;20241;-59
2023/05/20 08:41:29;;;;;;;7.57;6.97;;;22.80;99.90;;;;;;5052865;28;20559;-59
2023/05/20 08:43:57;;;;;;;6.17;5.77;;;22.60;99.90;;;;;;5052664;28;20202;-58
2023/05/20 08:46:26;;;;;;;6.50;6.10;;;22.40;99.90;;;;;;5050671;28;20218;-58
2023/05/20 08:48:53;;;;;;;7.30;6.90;;;22.00;99.90;;;;;;5052839;28;20629;-59
2023/05/20 08:51:22;;;;;;;8.33;7.20;;;22.00;99.90;;;;;;5051837;28;20752;-58
2023/05/20 08:53:49;;;;;;;7.43;6.83;;;21.80;99.90;;;;;;5052372;28;20313;-59
2023/05/20 08:56:17;;;;;;;6.40;6.00;;;21.50;99.90;;;;;;5049446;28;20259;-58
2023/05/20 08:58:45;;;;;;;7.83;7.23;;;21.40;99.90;;;;;;5052459;28;20218;-59
2023/05/20 09:01:12;;;;;;;6.93;6.43;;;21.20;99.90;;;;;;5052406;28;20205;-57
2023/05/20 09:03:41;;;;;;;6.83;6.43;;;21.20;99.90;;;;;;5051441;28;20552;-59
2023/05/20 09:06:09;;;;;;;6.07;5.53;;;21.10;99.90;;;;;;5046399;28;20308;-60
2023/05/20 09:08:37;;;;;;;5.07;4.67;;;20.70;99.90;;;;;;5052290;28;20214;-58
2023/05/20 09:11:04;;;;;;;7.23;6.63;;;20.70;99.90;;;;;;5052368;28;20236;-59
2023/05/20 09:13:32;;;;;;;5.70;5.30;;;20.90;99.90;;;;;;5052629;28;20202;-58
2023/05/20 09:16:00;;;;;;;6.40;5.93;;;21.10;99.90;;;;;;5048728;28;20652;-59
2023/05/20 09:18:28;;;;;;;6.00;5.50;;;21.30;99.90;;;;;;5047919;28;20236;-59
2023/05/20 09:20:57;;;;;;;8.70;7.90;;;21.50;99.90;;;;;;5052005;28;20193;-58
2023/05/20 09:23:24;;;;;;;7.80;7.30;;;21.30;99.90;;;;;;5051880;28;20197;-58
2023/05/20 09:25:51;;;;;;;6.10;5.60;;;21.50;99.90;;;;;;5052036;28;20236;-58
2023/05/20 09:28:19;;;;;;;6.33;5.90;;;21.90;99.90;;;;;;5051109;28;20220;-59
2023/05/20 09:30:50;;;;;;;8.20;7.63;;;22.40;99.90;;;;;;5050123;28;20617;-59
2023/05/20 09:33:17;;;;;;;7.90;7.30;;;22.30;99.90;;;;;;5041493;28;20193;-59
2023/05/20 09:35:44;;;;;;;9.67;8.73;;;22.30;99.90;;;;;;5051769;28;20198;-59
2023/05/20 09:38:14;;;;;;;10.30;9.43;;;22.20;99.90;;;;;;5050705;28;20758;-58
2023/05/20 09:40:44;;;;;;;9.87;9.00;;;21.70;99.90;;;;;;5051613;28;20632;-57
2023/05/20 09:43:11;;;;;;;11.37;9.77;;;21.30;99.90;;;;;;5051792;28;20202;-59
2023/05/20 09:45:38;;;;;;;9.70;8.87;;;21.00;99.90;;;;;;5050767;28;20221;-59
2023/05/20 09:48:07;;;;;;;10.57;9.57;;;20.80;99.90;;;;;;5049210;28;20302;-58
2023/05/20 09:50:35;;;;;;;9.87;8.97;;;21.00;99.90;;;;;;5051011;28;20198;-59
2023/05/20 09:53:03;;;;;;;10.37;9.33;;;21.30;99.90;;;;;;5051586;28;20205;-59
2023/05/20 09:55:32;;;;;;;11.17;10.07;;;21.80;99.90;;;;;;5051777;28;20198;-58
2023/05/20 09:58:02;;;;;;;11.17;9.60;;;21.50;99.90;;;;;;5050604;28;20218;-58
2023/05/20 10:00:30;;;;;;;8.90;8.10;;;21.90;99.90;;;;;;5051512;28;20204;-59
2023/05/20 10:02:57;;;;;;;10.40;9.40;;;22.10;99.90;;;;;;5049145;28;20201;-60
2023/05/20 10:05:28;;;;;;;10.80;9.77;;;22.20;99.90;;;;;;5051397;28;20226;-58
2023/05/20 10:08:25;;;;;;;11.40;9.70;;;21.60;99.90;;;;;;5051798;28;20226;-59
2023/05/20 10:11:03;;;;;;;11.00;9.90;;;21.70;99.90;;;;;;5031471;28;20228;-58
2023/05/20 10:13:46;;;;;;;10.63;9.63;;;21.90;99.90;;;;;;5050788;28;20209;-58
2023/05/20 10:16:28;;;;;;;9.43;8.63;;;21.90;99.90;;;;;;5049989;28;20243;-60
2023/05/20 10:19:04;;;;;;;11.63;10.60;;;22.40;99.90;;;;;;5049658;28;20312;-58
2023/05/20 10:21:31;;;;;;;13.33;11.97;;;22.50;99.90;;;;;;5045992;28;20197;-58
2023/05/20 10:24:06;;;;;;;11.77;10.83;;;22.10;99.90;;;;;;5047014;28;20213;-58
2023/05/20 10:26:41;;;;;;;13.57;12.27;;;21.60;99.90;;;;;;5051161;28;20225;-56
2023/05/20 10:29:15;;;;;;;13.27;12.07;;;21.40;99.90;;;;;;5051205;28;20271;-59
2023/05/20 10:31:45;;;;;;;11.60;10.50;;;21.40;99.90;;;;;;5050445;28;20698;-58
2023/05/20 10:34:16;;;;;;;11.73;10.63;;;21.10;99.90;;;;;;5049434;28;20201;-59
2023/05/20 10:36:48;;;;;;;12.67;11.50;;;21.50;99.90;;;;;;5051379;28;20190;-58
2023/05/20 10:39:17;;;;;;;12.30;11.20;;;21.20;99.90;;;;;;5062713;28;20309;-59
2023/05/20 10:41:45;;;;;;;14.07;12.63;;;21.30;99.90;;;;;;5071100;28;20706;-58
2023/05/20 10:44:12;;;;;;;13.60;12.20;;;21.30;99.90;;;;;;5064268;28;20554;-58
2023/05/20 10:46:39;;;;;;;13.30;12.00;;;20.90;99.90;;;;;;5051010;28;20243;-58
2023/05/20 10:49:17;;;;;;;13.83;12.53;;;20.60;99.90;;;;;;5050045;28;20213;-59
2023/05/20 10:51:45;;;;;;;12.60;11.37;;;20.10;99.90;;;;;;5051451;28;20206;-58
2023/05/20 10:54:13;;;;;;;11.80;10.63;;;20.20;99.90;;;;;;5051136;28;20206;-59
2023/05/20 10:56:50;;;;;;;13.00;11.57;;;20.40;99.90;;;;;;5050837;28;20271;-59
2023/05/20 10:59:20;;;;;;;13.47;12.13;;;20.20;99.90;;;;;;5051046;28;20637;-58
2023/05/20 11:01:47;;;;;;;13.00;11.77;;;20.40;99.90;;;;;;5051408;28;20210;-58
2023/05/20 11:04:15;;;;;;;13.70;12.43;;;20.60;99.90;;;;;;5050802;28;20206;-57
2023/05/20 11:06:52;;;;;;;10.90;9.90;;;20.60;99.90;;;;;;5051177;28;20612;-59
2023/05/20 11:09:19;;;;;;;12.37;11.10;;;20.80;99.90;;;;;;5054532;28;20638;-58
2023/05/20 11:11:47;;;;;;;11.07;10.07;;;20.90;99.90;;;;;;5054884;28;20749;-58
2023/05/20 11:14:16;;;;;;;11.30;10.30;;;21.00;99.90;;;;;;5054463;28;20232;-58
2023/05/20 11:16:47;;;;;;;11.97;10.97;;;21.10;99.90;;;;;;5054529;28;20198;-58
2023/05/20 11:19:15;;;;;;;11.33;10.43;;;21.30;99.90;;;;;;5054299;28;20610;-59
2023/05/20 11:21:45;;;;;;;11.80;10.67;;;21.50;99.90;;;;;;5047045;28;20292;-59
2023/05/20 11:24:13;;;;;;;11.47;10.37;;;21.60;99.90;;;;;;5054319;28;20261;-58
2023/05/20 11:26:40;;;;;;;13.70;10.97;;;21.60;99.90;;;;;;5054802;28;20245;-58
2023/05/20 11:29:07;;;;;;;11.67;10.63;;;21.10;99.90;;;;;;5054777;28;20256;-59
2023/05/20 11:31:34;;;;;;;14.03;12.47;;;20.80;99.90;;;;;;5054883;28;20206;-58
2023/05/20 11:34:03;;;;;;;12.93;11.83;;;20.70;99.90;;;;;;5054563;28;20209;-57
2023/05/20 11:36:31;;;;;;;12.77;11.47;;;20.60;99.90;;;;;;5052234;28;20198;-58
2023/05/20 11:38:59;;;;;;;12.97;11.63;;;20.40;99.90;;;;;;5054598;28;20331;-58
2023/05/20 11:41:26;;;;;;;12.30;11.10;;;20.30;99.90;;;;;;5054803;28;20577;-58
2023/05/20 11:43:57;;;;;;;12.37;11.10;;;20.30;99.90;;;;;;5054257;28;20870;-58
2023/05/20 11:46:25;;;;;;;12.50;11.40;;;20.50;99.90;;;;;;5053800;28;20214;-58
2023/05/20 11:48:53;;;;;;;13.67;12.30;;;20.70;99.90;;;;;;5054038;28;20276;-59
2023/05/20 11:51:25;;;;;;;12.83;11.73;;;20.80;99.90;;;;;;5054313;28;20260;-58
2023/05/20 11:53:52;;;;;;;11.50;10.43;;;20.90;99.90;;;;;;5049379;28;20523;-58
2023/05/20 11:56:21;;;;;;;11.97;10.77;;;21.00;99.90;;;;;;5043845;28;20197;-58
2023/05/20 11:58:48;;;;;;;12.83;11.73;;;21.00;99.90;;;;;;5053759;28;20221;-58
2023/05/20 12:01:15;;;;;;;11.97;10.87;;;21.10;99.90;;;;;;5054137;28;20202;-58
2023/05/20 12:03:42;;;;;;;12.37;11.27;;;21.10;99.90;;;;;;5053246;28;20252;-59
2023/05/20 12:06:12;;;;;;;11.63;10.63;;;21.40;99.90;;;;;;5053709;28;20248;-58
2023/05/20 12:08:40;;;;;;;11.50;10.40;;;21.40;99.90;;;;;;5051436;28;20217;-58
2023/05/20 12:11:07;;;;;;;13.20;11.70;;;21.50;99.90;;;;;;5053152;28;20201;-58
2023/05/20 12:13:34;;;;;;;12.40;11.13;;;21.50;99.90;;;;;;5053205;28;20206;-58
2023/05/20 12:16:01;;;;;;;11.67;10.47;;;21.10;99.90;;;;;;5053343;28;20194;-58
2023/05/20 12:18:28;;;;;;;12.50;11.40;;;21.20;99.90;;;;;;5053333;28;20285;-58
2023/05/20 12:20:55;;;;;;;10.37;9.47;;;21.30;99.90;;;;;;5053630;28;20255;-58
2023/05/20 12:23:22;;;;;;;12.23;10.87;;;21.30;99.90;;;;;;5053075;28;20220;-59
2023/05/20 12:25:50;;;;;;;12.03;10.93;;;21.30;99.90;;;;;;5043797;28;20287;-59
2023/05/20 12:28:17;;;;;;;11.70;10.70;;;21.50;99.90;;;;;;5053083;28;20694;-58
2023/05/20 12:30:44;;;;;;;13.60;12.27;;;21.60;99.90;;;;;;5053889;28;20205;-58
2023/05/20 12:33:11;;;;;;;13.60;12.40;;;21.40;99.90;;;;;;5053136;28;20201;-58
2023/05/20 12:35:39;;;;;;;13.10;11.77;;;21.60;99.90;;;;;;5053363;28;20209;-58
2023/05/20 12:38:06;;;;;;;11.87;10.80;;;21.70;99.90;;;;;;5053044;28;20370;-58